Time;durP1;ratioP1;P1;durP2;ratioP2;P2;SDS_P1;SDS_P2;PMS_P1;PMS_P2;Temp;Humidity;BMP_temperature;BMP_pressure;BME280_temperature;BME280_humidity;BME280_pressure;Samples;Min_cycle;Max_cycle;Signal;HPM_P1;HPM_P2
2022/06/18 00:01:41;;;;;;;;;;;26.30;98.40;;;;;;5015278;28;20313;-72
2022/06/18 00:04:11;;;;;;;;;;;26.20;98.60;;;;;;5014911;28;20282;-73
2022/06/18 00:06:55;;;;;;;;;;;26.20;98.70;;;;;;5015151;28;19992;-73
2022/06/18 00:09:22;;;;;;;;;;;26.20;98.80;;;;;;5001053;28;19918;-72
2022/06/18 00:14:33;;;;;;;;;;;26.20;98.80;;;;;;5013631;28;19912;-72
2022/06/18 00:16:59;;;;;;;;;;;26.20;98.90;;;;;;5014721;28;20004;-72
2022/06/18 00:19:25;;;;;;;;;;;26.20;99.00;;;;;;5015474;28;19922;-73
2022/06/18 00:21:50;;;;;;;;;;;26.20;98.90;;;;;;5013715;28;20045;-72
2022/06/18 00:24:17;;;;;;;;;;;26.20;98.80;;;;;;5014664;28;19913;-71
2022/06/18 00:26:43;;;;;;;;;;;26.20;98.60;;;;;;5013821;28;19906;-72
2022/06/18 00:29:11;;;;;;;;;;;26.20;98.50;;;;;;5014385;28;19921;-72
2022/06/18 00:31:36;;;;;;;;;;;26.10;98.20;;;;;;5014065;28;19987;-72
2022/06/18 00:34:02;;;;;;;;;;;25.90;98.40;;;;;;5014343;28;20370;-73
2022/06/18 00:36:27;;;;;;;;;;;25.90;98.60;;;;;;5014721;28;20260;-73
2022/06/18 00:38:53;;;;;;;;;;;26.00;98.10;;;;;;5014396;28;19909;-72
2022/06/18 00:41:21;;;;;;;;;;;25.90;97.80;;;;;;5013526;28;20350;-72
2022/06/18 00:44:02;;;;;;;;;;;25.80;97.80;;;;;;5008533;28;20444;-72
2022/06/18 00:46:31;;;;;;;;;;;25.70;98.10;;;;;;5014052;28;19913;-72
2022/06/18 00:48:56;;;;;;;;;;;25.60;98.60;;;;;;5014235;28;19921;-72
2022/06/18 00:51:25;;;;;;;;;;;25.50;98.80;;;;;;5013898;28;19916;-72
2022/06/18 00:53:59;;;;;;;;;;;25.50;99.50;;;;;;5014098;28;20278;-72
2022/06/18 00:56:37;;;;;;;;;;;25.30;99.90;;;;;;5011436;28;19996;-72
2022/06/18 00:59:07;;;;;;;;;;;25.10;99.90;;;;;;5014172;28;20011;-72
2022/06/18 01:01:35;;;;;;;;;;;25.20;99.90;;;;;;5014090;28;19909;-72
2022/06/18 01:04:01;;;;;;;;;;;25.20;99.90;;;;;;5013960;28;19932;-71
2022/06/18 01:06:33;;;;;;;;;;;25.10;99.90;;;;;;5013938;28;20278;-71
2022/06/18 01:09:12;;;;;;;;;;;25.10;99.90;;;;;;5013673;28;19917;-73
2022/06/18 01:11:39;;;;;;;;;;;25.10;99.90;;;;;;5008384;28;20289;-72
2022/06/18 01:14:07;;;;;;;;;;;25.10;99.90;;;;;;5013632;28;19955;-72
2022/06/18 01:16:33;;;;;;;;;;;25.10;99.90;;;;;;5014058;28;19996;-72
2022/06/18 01:19:00;;;;;;;;;;;25.00;99.90;;;;;;5013219;28;19953;-72
2022/06/18 01:21:25;;;;;;;;;;;25.00;99.90;;;;;;5014201;28;19909;-72
2022/06/18 01:23:55;;;;;;;;;;;25.00;99.90;;;;;;5013303;28;19909;-72
2022/06/18 01:26:21;;;;;;;;;;;25.10;99.90;;;;;;5010683;28;20365;-72
2022/06/18 01:28:46;;;;;;;;;;;25.10;99.90;;;;;;5013791;28;19924;-72
2022/06/18 01:31:12;;;;;;;;;;;25.20;99.90;;;;;;5013613;28;19909;-71
2022/06/18 01:33:38;;;;;;;;;;;25.10;99.90;;;;;;5013420;28;20408;-72
2022/06/18 01:36:07;;;;;;;;;;;25.20;99.90;;;;;;5013566;28;19996;-72
2022/06/18 01:38:33;;;;;;;;;;;25.10;99.90;;;;;;5013135;28;19992;-72
2022/06/18 01:43:50;;;;;;;;;;;25.10;99.90;;;;;;5013356;28;19915;-71
2022/06/18 01:46:15;;;;;;;;;;;25.10;99.90;;;;;;5012949;28;19910;-72
2022/06/18 01:48:42;;;;;;;;;;;25.20;99.90;;;;;;5013696;28;20334;-72
2022/06/18 01:51:09;;;;;;;;;;;25.20;99.90;;;;;;4997682;28;19916;-72
2022/06/18 01:53:40;;;;;;;;;;;25.10;99.90;;;;;;5012503;28;19909;-72
2022/06/18 01:56:18;;;;;;;;;;;25.20;99.90;;;;;;5014493;28;19967;-72
2022/06/18 01:58:49;;;;;;;;;;;25.20;99.90;;;;;;5012930;28;19910;-72
2022/06/18 02:01:17;;;;;;;;;;;25.20;99.90;;;;;;5012786;28;19909;-72
2022/06/18 02:03:43;;;;;;;;;;;25.20;99.90;;;;;;5012886;28;19909;-71
2022/06/18 02:06:08;;;;;;;;;;;25.00;99.90;;;;;;5013685;28;19963;-72
2022/06/18 02:08:35;;;;;;;;;;;25.00;99.90;;;;;;5012055;28;19914;-72
2022/06/18 02:11:03;;;;;;;;;;;24.90;99.90;;;;;;5013011;28;20252;-72
2022/06/18 02:13:32;;;;;;;;;;;24.90;99.90;;;;;;5013247;28;20372;-72
2022/06/18 02:15:58;;;;;;;;;;;24.90;99.90;;;;;;5012401;28;19916;-71
2022/06/18 02:18:24;;;;;;;;;;;24.80;99.90;;;;;;5014903;28;20004;-72
2022/06/18 02:20:51;;;;;;;;;;;24.80;99.90;;;;;;5015408;28;20378;-72
2022/06/18 02:23:17;;;;;;;;;;;24.70;99.90;;;;;;5016033;28;19918;-72
2022/06/18 02:25:43;;;;;;;;;;;24.70;99.90;;;;;;5016808;28;19916;-72
2022/06/18 02:28:12;;;;;;;;;;;24.80;99.90;;;;;;5016673;28;19910;-72
2022/06/18 02:30:37;;;;;;;;;;;24.80;99.90;;;;;;5016723;28;20285;-72
2022/06/18 02:33:10;;;;;;;;;;;24.80;99.90;;;;;;5016815;28;19924;-71
2022/06/18 02:35:36;;;;;;;;;;;24.90;99.90;;;;;;5011924;28;20390;-72
2022/06/18 02:38:09;;;;;;;;;;;24.90;99.90;;;;;;5017883;28;20382;-72
2022/06/18 02:40:35;;;;;;;;;;;24.90;99.90;;;;;;5016633;28;19917;-72
2022/06/18 02:43:01;;;;;;;;;;;24.80;99.90;;;;;;5015937;28;19910;-72
2022/06/18 02:45:27;;;;;;;;;;;24.70;99.90;;;;;;5016210;28;19916;-72
2022/06/18 02:47:55;;;;;;;;;;;24.80;99.90;;;;;;5016319;28;19917;-71
2022/06/18 02:50:22;;;;;;;;;;;24.70;99.90;;;;;;5013329;28;19925;-73
2022/06/18 02:52:50;;;;;;;;;;;24.60;99.90;;;;;;5016371;28;19913;-72
2022/06/18 02:55:25;;;;;;;;;;;24.60;99.90;;;;;;5010882;28;19910;-72
2022/06/18 02:57:55;;;;;;;;;;;24.60;99.90;;;;;;5016411;28;20392;-72
2022/06/18 03:00:21;;;;;;;;;;;24.60;99.90;;;;;;5016266;28;19916;-71
2022/06/18 03:02:46;;;;;;;;;;;24.50;99.90;;;;;;5015833;28;19909;-72
2022/06/18 03:05:21;;;;;;;;;;;24.50;99.90;;;;;;5016113;28;19916;-72
2022/06/18 03:07:46;;;;;;;;;;;24.70;99.90;;;;;;5015653;28;19913;-72
2022/06/18 03:12:56;;;;;;;;;;;24.60;99.90;;;;;;5016864;28;19968;-72
2022/06/18 03:15:23;;;;;;;;;;;24.50;99.90;;;;;;5016046;28;20329;-72
2022/06/18 03:17:49;;;;;;;;;;;24.60;99.90;;;;;;5015432;28;20392;-72
2022/06/18 03:20:16;;;;;;;;;;;24.60;99.90;;;;;;5016055;28;19905;-72
2022/06/18 03:22:42;;;;;;;;;;;24.70;99.90;;;;;;5016049;28;19944;-72
2022/06/18 03:25:07;;;;;;;;;;;24.70;99.90;;;;;;5015697;28;19914;-72
2022/06/18 03:27:33;;;;;;;;;;;24.70;99.90;;;;;;5015979;28;19948;-72
2022/06/18 03:29:59;;;;;;;;;;;24.60;99.90;;;;;;5015244;28;19914;-72
2022/06/18 03:32:24;;;;;;;;;;;24.70;99.90;;;;;;5014990;28;19936;-72
2022/06/18 03:34:50;;;;;;;;;;;24.60;99.90;;;;;;5015488;28;19909;-72
2022/06/18 03:37:15;;;;;;;;;;;24.50;99.90;;;;;;5015358;28;19920;-72
2022/06/18 03:39:41;;;;;;;;;;;24.60;99.90;;;;;;5015344;28;19914;-72
2022/06/18 03:42:07;;;;;;;;;;;24.60;99.90;;;;;;5015485;28;19924;-72
2022/06/18 03:44:32;;;;;;;;;;;24.60;99.90;;;;;;5014688;28;19949;-72
2022/06/18 03:46:58;;;;;;;;;;;24.60;99.90;;;;;;5015498;28;20002;-72
2022/06/18 03:49:26;;;;;;;;;;;24.60;99.90;;;;;;5015152;28;20289;-72
2022/06/18 03:51:52;;;;;;;;;;;24.50;99.90;;;;;;5014932;28;19956;-71
2022/06/18 03:54:17;;;;;;;;;;;24.50;99.90;;;;;;5015084;28;19910;-72
2022/06/18 03:56:43;;;;;;;;;;;24.60;99.90;;;;;;5014253;28;19956;-72
2022/06/18 03:59:09;;;;;;;;;;;24.50;99.90;;;;;;5015108;28;19916;-72
2022/06/18 04:01:40;;;;;;;;;;;24.60;99.90;;;;;;5015132;28;19952;-72
2022/06/18 04:04:06;;;;;;;;;;;24.60;99.90;;;;;;5015042;28;19916;-72
2022/06/18 04:06:32;;;;;;;;;;;24.60;99.90;;;;;;5014857;28;20397;-72
2022/06/18 04:08:57;;;;;;;;;;;24.60;99.90;;;;;;5015438;28;20012;-72
2022/06/18 04:11:23;;;;;;;;;;;24.50;99.90;;;;;;5014229;28;20000;-71
2022/06/18 04:13:48;;;;;;;;;;;24.60;99.90;;;;;;5014077;28;20377;-72
2022/06/18 04:16:14;;;;;;;;;;;24.60;99.90;;;;;;5014842;28;19956;-73
2022/06/18 04:18:41;;;;;;;;;;;24.60;99.90;;;;;;5015064;28;19909;-72
2022/06/18 04:21:07;;;;;;;;;;;24.60;99.90;;;;;;5014664;28;19909;-72
2022/06/18 04:23:32;;;;;;;;;;;24.60;99.90;;;;;;5013866;28;19921;-71
2022/06/18 04:25:58;;;;;;;;;;;24.60;99.90;;;;;;5014504;28;19909;-72
2022/06/18 04:28:24;;;;;;;;;;;24.60;99.90;;;;;;5014125;28;20496;-72
2022/06/18 04:30:49;;;;;;;;;;;24.60;99.90;;;;;;5014768;28;19909;-72
2022/06/18 04:33:15;;;;;;;;;;;24.60;99.90;;;;;;5014483;28;19917;-72
2022/06/18 04:35:40;;;;;;;;;;;24.40;99.90;;;;;;5013270;28;20047;-72
2022/06/18 04:38:06;;;;;;;;;;;24.30;99.90;;;;;;5014573;28;19909;-72
2022/06/18 04:40:33;;;;;;;;;;;24.30;99.90;;;;;;5013429;28;19956;-72
2022/06/18 04:43:02;;;;;;;;;;;24.20;99.90;;;;;;5014721;28;19916;-72
2022/06/18 04:45:28;;;;;;;;;;;24.10;99.90;;;;;;5014420;28;19910;-72
2022/06/18 04:47:54;;;;;;;;;;;24.00;99.90;;;;;;5013605;28;20297;-71
2022/06/18 04:50:21;;;;;;;;;;;23.90;99.90;;;;;;5013402;28;19922;-71
2022/06/18 04:52:47;;;;;;;;;;;24.00;99.90;;;;;;5014152;28;20322;-72
2022/06/18 04:55:12;;;;;;;;;;;24.00;99.90;;;;;;5014490;28;19995;-71
2022/06/18 04:57:38;;;;;;;;;;;24.10;99.90;;;;;;5014136;28;20286;-72
2022/06/18 05:00:06;;;;;;;;;;;24.20;99.90;;;;;;5013877;28;20313;-72
2022/06/18 05:02:33;;;;;;;;;;;24.30;99.90;;;;;;5013426;28;19953;-72
2022/06/18 05:04:58;;;;;;;;;;;24.30;99.90;;;;;;5013486;28;19972;-72
2022/06/18 05:07:24;;;;;;;;;;;24.30;99.90;;;;;;5013832;28;19913;-72
2022/06/18 05:09:49;;;;;;;;;;;24.20;99.90;;;;;;5013769;28;19924;-72
2022/06/18 05:12:18;;;;;;;;;;;24.30;99.90;;;;;;5015116;28;19972;-72
2022/06/18 05:14:44;;;;;;;;;;;24.40;99.90;;;;;;5012917;28;19929;-70
2022/06/18 05:17:12;;;;;;;;;;;24.40;99.90;;;;;;5013404;28;19909;-69
2022/06/18 05:19:38;;;;;;;;;;;24.40;99.90;;;;;;5011936;28;19909;-71
2022/06/18 05:22:03;;;;;;;;;;;24.30;99.90;;;;;;5013952;28;20318;-73
2022/06/18 05:24:29;;;;;;;;;;;24.30;99.90;;;;;;5013688;28;20350;-76
2022/06/18 05:26:56;;;;;;;;;;;24.40;99.90;;;;;;5013667;28;19912;-73
2022/06/18 05:29:22;;;;;;;;;;;24.40;99.90;;;;;;5010815;28;19960;-74
2022/06/18 05:31:48;;;;;;;;;;;24.40;99.90;;;;;;5013252;28;19952;-75
2022/06/18 05:34:13;;;;;;;;;;;24.50;99.90;;;;;;5013524;28;19910;-72
2022/06/18 05:36:39;;;;;;;;;;;24.40;99.90;;;;;;5013345;28;19910;-73
2022/06/18 05:39:05;;;;;;;;;;;24.50;99.90;;;;;;5013590;28;19909;-74
2022/06/18 05:41:31;;;;;;;;;;;24.60;99.90;;;;;;5012661;28;20050;-72
2022/06/18 05:43:57;;;;;;;;;;;24.80;99.90;;;;;;5013291;28;20000;-73
2022/06/18 05:46:23;;;;;;;;;;;24.90;99.90;;;;;;5013036;28;20355;-73
2022/06/18 05:48:49;;;;;;;;;;;24.90;99.90;;;;;;5013198;28;20086;-73
2022/06/18 05:51:14;;;;;;;;;;;24.90;99.90;;;;;;5012912;28;20420;-73
2022/06/18 05:53:40;;;;;;;;;;;25.00;99.90;;;;;;5012842;28;20036;-73
2022/06/18 05:56:05;;;;;;;;;;;25.10;99.90;;;;;;5012500;28;20374;-72
2022/06/18 05:58:31;;;;;;;;;;;25.10;99.90;;;;;;5013227;28;20370;-72
2022/06/18 06:00:57;;;;;;;;;;;25.10;99.90;;;;;;5013020;28;19909;-72
2022/06/18 06:03:23;;;;;;;;;;;25.20;99.90;;;;;;5012832;28;19916;-72
2022/06/18 06:05:49;;;;;;;;;;;25.30;99.90;;;;;;5012143;28;19931;-73
2022/06/18 06:08:15;;;;;;;;;;;25.30;99.90;;;;;;5012895;28;19996;-72
2022/06/18 06:13:25;;;;;;;;;;;25.30;99.90;;;;;;5012971;28;20412;-72
2022/06/18 06:15:51;;;;;;;;;;;25.40;99.90;;;;;;5012741;28;19953;-73
2022/06/18 06:18:18;;;;;;;;;;;25.40;99.90;;;;;;5013064;28;19932;-72
2022/06/18 06:20:46;;;;;;;;;;;25.50;99.90;;;;;;5012295;28;20449;-73
2022/06/18 06:23:12;;;;;;;;;;;25.50;99.90;;;;;;5012714;28;19917;-77
2022/06/18 06:25:38;;;;;;;;;;;25.60;99.90;;;;;;5012970;28;19910;-77
2022/06/18 06:28:05;;;;;;;;;;;25.60;99.90;;;;;;5012489;28;20448;-75
2022/06/18 06:30:30;;;;;;;;;;;25.70;99.40;;;;;;5013002;28;20291;-76
2022/06/18 06:32:56;;;;;;;;;;;25.70;98.30;;;;;;5013017;28;19917;-77
2022/06/18 06:35:21;;;;;;;;;;;25.80;98.40;;;;;;5012196;28;19952;-77
2022/06/18 06:37:47;;;;;;;;;;;25.90;98.50;;;;;;5012989;28;19910;-77
2022/06/18 06:40:16;;;;;;;;;;;25.90;98.00;;;;;;5012903;28;19910;-78
2022/06/18 06:42:45;;;;;;;;;;;26.00;97.40;;;;;;5013271;28;19956;-77
2022/06/18 06:45:22;;;;;;;;;;;26.00;97.50;;;;;;5007034;28;19916;-77
2022/06/18 06:47:47;;;;;;;;;;;26.10;97.30;;;;;;5009530;28;19913;-77
2022/06/18 06:50:14;;;;;;;;;;;26.20;97.20;;;;;;5011014;28;20286;-77
2022/06/18 06:52:39;;;;;;;;;;;26.20;96.40;;;;;;5012136;28;19952;-77
2022/06/18 06:57:50;;;;;;;;;;;26.20;96.30;;;;;;5013006;28;20318;-76
2022/06/18 07:00:16;;;;;;;;;;;26.30;95.40;;;;;;5012377;28;19917;-77
2022/06/18 07:02:43;;;;;;;;;;;26.30;95.40;;;;;;5012013;28;20373;-78
2022/06/18 07:05:10;;;;;;;;;;;26.40;94.90;;;;;;5017215;28;19996;-77
2022/06/18 07:07:35;;;;;;;;;;;26.40;95.10;;;;;;5015489;28;19909;-78
2022/06/18 07:10:01;;;;;;;;;;;26.40;95.00;;;;;;5016035;28;19924;-78
2022/06/18 07:12:26;;;;;;;;;;;26.50;93.40;;;;;;5016738;28;19913;-76
2022/06/18 07:14:52;;;;;;;;;;;26.60;93.40;;;;;;5015419;28;19913;-77
2022/06/18 07:17:18;;;;;;;;;;;26.70;93.70;;;;;;5015839;28;20081;-77
2022/06/18 07:19:44;;;;;;;;;;;26.70;93.20;;;;;;5016404;28;19909;-77
2022/06/18 07:22:10;;;;;;;;;;;26.70;93.20;;;;;;5009791;28;19992;-76
2022/06/18 07:24:36;;;;;;;;;;;26.70;93.40;;;;;;5016077;28;20448;-76
2022/06/18 07:27:02;;;;;;;;;;;26.70;93.30;;;;;;5015881;28;19917;-75
2022/06/18 07:29:27;;;;;;;;;;;26.70;93.30;;;;;;5014678;28;20281;-76
2022/06/18 07:31:53;;;;;;;;;;;26.90;92.20;;;;;;5015902;28;20363;-76
2022/06/18 07:34:18;;;;;;;;;;;27.00;91.60;;;;;;5015806;28;19913;-76
2022/06/18 07:36:44;;;;;;;;;;;27.00;91.10;;;;;;5015768;28;19916;-75
2022/06/18 07:39:10;;;;;;;;;;;27.00;91.10;;;;;;5009685;28;20007;-76
2022/06/18 07:41:38;;;;;;;;;;;27.10;90.90;;;;;;5014934;28;19952;-76
2022/06/18 07:44:04;;;;;;;;;;;27.10;90.70;;;;;;5015208;28;20333;-77
2022/06/18 07:46:30;;;;;;;;;;;27.10;90.20;;;;;;5014957;28;19913;-76
2022/06/18 07:48:55;;;;;;;;;;;27.10;90.80;;;;;;5015495;28;19971;-76
2022/06/18 07:51:22;;;;;;;;;;;27.30;90.70;;;;;;5015807;28;19913;-76
2022/06/18 07:53:48;;;;;;;;;;;27.30;91.00;;;;;;5014507;28;19913;-75
2022/06/18 07:56:14;;;;;;;;;;;27.40;90.80;;;;;;5015172;28;19909;-79
2022/06/18 07:58:40;;;;;;;;;;;27.40;90.70;;;;;;5014361;28;19909;-76
2022/06/18 08:01:05;;;;;;;;;;;27.50;90.50;;;;;;5016559;28;19952;-75
2022/06/18 08:03:31;;;;;;;;;;;27.50;91.00;;;;;;5015136;28;19910;-75
2022/06/18 08:05:56;;;;;;;;;;;27.40;91.10;;;;;;5015160;28;19909;-75
2022/06/18 08:08:22;;;;;;;;;;;27.50;91.00;;;;;;5013993;28;20320;-75
2022/06/18 08:10:49;;;;;;;;;;;27.60;90.80;;;;;;5014559;28;20345;-75
2022/06/18 08:13:15;;;;;;;;;;;27.60;90.40;;;;;;5015073;28;19909;-75
2022/06/18 08:15:40;;;;;;;;;;;27.70;89.70;;;;;;5013906;28;20016;-76
2022/06/18 08:18:06;;;;;;;;;;;27.70;90.20;;;;;;5014738;28;20438;-75
2022/06/18 08:20:33;;;;;;;;;;;27.70;90.10;;;;;;5014255;28;19913;-75
2022/06/18 08:23:00;;;;;;;;;;;27.80;90.20;;;;;;5014480;28;19964;-75
2022/06/18 08:25:27;;;;;;;;;;;28.00;90.00;;;;;;5014678;28;19909;-75
2022/06/18 08:27:53;;;;;;;;;;;28.00;89.40;;;;;;5014545;28;20362;-76
2022/06/18 08:30:18;;;;;;;;;;;28.00;89.50;;;;;;5014358;28;19949;-76
2022/06/18 08:32:44;;;;;;;;;;;28.00;89.60;;;;;;5012424;28;20341;-76
2022/06/18 08:35:10;;;;;;;;;;;28.00;89.20;;;;;;5014735;28;20251;-77
2022/06/18 08:37:36;;;;;;;;;;;28.10;87.30;;;;;;5014549;28;19917;-75
2022/06/18 08:40:04;;;;;;;;;;;28.20;85.80;;;;;;5014174;28;19949;-77
2022/06/18 08:42:29;;;;;;;;;;;28.20;88.00;;;;;;5012128;28;19996;-77
2022/06/18 08:44:58;;;;;;;;;;;28.30;87.60;;;;;;5012701;28;19952;-77
2022/06/18 08:47:26;;;;;;;;;;;28.30;89.00;;;;;;5012537;28;19940;-77
2022/06/18 08:50:11;;;;;;;;;;;28.30;88.80;;;;;;5014181;28;19917;-77
2022/06/18 08:52:39;;;;;;;;;;;28.20;90.40;;;;;;5014305;28;20432;-78
2022/06/18 08:55:19;;;;;;;;;;;28.20;91.30;;;;;;5014052;28;20364;-77
2022/06/18 08:57:45;;;;;;;;;;;28.20;91.30;;;;;;5014542;28;19909;-77
2022/06/18 09:00:13;;;;;;;;;;;28.40;89.30;;;;;;5014190;28;20028;-77
2022/06/18 09:02:41;;;;;;;;;;;28.30;90.40;;;;;;5011177;28;19913;-77
2022/06/18 09:05:25;;;;;;;;;;;28.30;89.50;;;;;;5013546;28;19916;-77
2022/06/18 09:08:02;;;;;;;;;;;28.50;88.40;;;;;;5013624;28;19921;-78
2022/06/18 09:10:28;;;;;;;;;;;28.60;84.70;;;;;;5013826;28;19971;-78
2022/06/18 09:12:59;;;;;;;;;;;28.50;85.70;;;;;;5014318;28;19909;-76
2022/06/18 09:15:31;;;;;;;;;;;28.60;87.30;;;;;;5012540;28;19910;-76
2022/06/18 09:18:07;;;;;;;;;;;28.50;88.90;;;;;;5000500;28;19906;-76
2022/06/18 09:20:37;;;;;;;;;;;28.60;89.10;;;;;;5012265;28;19932;-76
2022/06/18 09:23:07;;;;;;;;;;;28.70;88.40;;;;;;5013534;28;19921;-77
2022/06/18 09:25:35;;;;;;;;;;;28.70;89.50;;;;;;5013109;28;20004;-75
2022/06/18 09:28:05;;;;;;;;;;;28.80;88.00;;;;;;5013475;28;19916;-78
2022/06/18 09:30:38;;;;;;;;;;;28.80;87.90;;;;;;5013525;28;19921;-78
2022/06/18 09:33:24;;;;;;;;;;;28.70;87.90;;;;;;5011821;28;20328;-77
2022/06/18 09:35:58;;;;;;;;;;;28.70;89.10;;;;;;5011251;28;20392;-77
2022/06/18 09:38:49;;;;;;;;;;;28.80;89.00;;;;;;5010510;28;19910;-78
2022/06/18 09:41:21;;;;;;;;;;;29.00;89.80;;;;;;5002081;28;20004;-78
2022/06/18 09:43:57;;;;;;;;;;;29.00;88.10;;;;;;5008579;28;19919;-78
2022/06/18 09:46:26;;;;;;;;;;;28.90;88.50;;;;;;5008514;28;20007;-79
2022/06/18 09:48:52;;;;;;;;;;;28.90;89.10;;;;;;5007467;28;19924;-80
2022/06/18 09:51:39;;;;;;;;;;;29.10;89.40;;;;;;5006550;28;19928;-79
2022/06/18 09:54:07;;;;;;;;;;;29.10;89.80;;;;;;4997054;28;19909;-80
2022/06/18 09:56:41;;;;;;;;;;;29.10;89.60;;;;;;5008096;28;19913;-79
2022/06/18 09:59:28;;;;;;;;;;;29.20;88.40;;;;;;5005119;28;20117;-80
2022/06/18 10:01:55;;;;;;;;;;;29.20;87.00;;;;;;5005813;28;19968;-80
2022/06/18 10:07:08;;;;;;;;;;;29.40;84.70;;;;;;5005430;28;19936;-80
2022/06/18 10:09:41;;;;;;;;;;;29.40;86.20;;;;;;5006025;28;20406;-80
2022/06/18 10:12:18;;;;;;;;;;;29.40;85.00;;;;;;5006777;28;19921;-81
2022/06/18 10:14:44;;;;;;;;;;;29.50;85.70;;;;;;5005318;28;19910;-81
2022/06/18 10:17:15;;;;;;;;;;;29.40;86.00;;;;;;5006673;28;20378;-80
2022/06/18 10:19:50;;;;;;;;;;;29.40;85.60;;;;;;5004785;28;19914;-79
2022/06/18 10:22:18;;;;;;;;;;;29.40;85.80;;;;;;5005257;28;19917;-79
2022/06/18 10:25:10;;;;;;;;;;;29.30;85.50;;;;;;5008270;28;20008;-78
2022/06/18 10:27:45;;;;;;;;;;;29.50;86.70;;;;;;4935451;29;19917;-78
2022/06/18 10:30:24;;;;;;;;;;;29.40;86.50;;;;;;4932070;29;19922;-79
2022/06/18 10:32:58;;;;;;;;;;;29.50;87.00;;;;;;4942752;29;19964;-79
2022/06/18 10:35:39;;;;;;;;;;;29.50;86.90;;;;;;4946598;29;19951;-80
2022/06/18 10:38:14;;;;;;;;;;;29.60;84.60;;;;;;4946573;28;20409;-79
2022/06/18 10:40:46;;;;;;;;;;;29.60;83.80;;;;;;4951376;29;19917;-76
2022/06/18 10:43:13;;;;;;;;;;;29.60;83.80;;;;;;4951102;29;19911;-74
2022/06/18 10:45:38;;;;;;;;;;;29.60;82.80;;;;;;4951190;29;19911;-74
2022/06/18 10:48:24;;;;;;;;;;;29.80;81.70;;;;;;4951258;29;20005;-75
2022/06/18 10:50:52;;;;;;;;;;;29.60;81.50;;;;;;4948215;29;19918;-75
2022/06/18 10:53:19;;;;;;;;;;;29.70;81.40;;;;;;4951918;29;19978;-75
2022/06/18 10:55:55;;;;;;;;;;;29.70;78.50;;;;;;4950208;29;20260;-75
2022/06/18 10:58:21;;;;;;;;;;;29.70;79.40;;;;;;4949547;29;20049;-76
2022/06/18 11:01:01;;;;;;;;;;;29.70;79.10;;;;;;4951278;29;19972;-76
2022/06/18 11:03:28;;;;;;;;;;;29.80;77.50;;;;;;4959169;28;20021;-76
2022/06/18 11:05:55;;;;;;;;;;;29.70;77.00;;;;;;5013222;28;20020;-75
2022/06/18 11:08:22;;;;;;;;;;;29.70;77.80;;;;;;5012899;28;19941;-77
2022/06/18 11:10:53;;;;;;;;;;;29.90;77.20;;;;;;5013742;28;19918;-74
2022/06/18 11:13:18;;;;;;;;;;;29.90;77.20;;;;;;5011712;28;19916;-76
2022/06/18 11:15:44;;;;;;;;;;;29.80;77.80;;;;;;5011490;28;19910;-76
2022/06/18 11:18:17;;;;;;;;;;;30.00;76.50;;;;;;5012764;28;19917;-74
2022/06/18 11:20:55;;;;;;;;;;;29.80;76.30;;;;;;5011295;28;20004;-73
2022/06/18 11:23:20;;;;;;;;;;;30.00;75.90;;;;;;5014010;28;20326;-73
2022/06/18 11:25:50;;;;;;;;;;;30.20;75.90;;;;;;5011163;28;19914;-73
2022/06/18 11:28:20;;;;;;;;;;;30.00;75.50;;;;;;5003995;28;19952;-73
2022/06/18 11:30:46;;;;;;;;;;;30.20;74.70;;;;;;5012889;28;20378;-73
2022/06/18 11:33:21;;;;;;;;;;;30.10;75.50;;;;;;4996310;28;20461;-73
2022/06/18 11:35:50;;;;;;;;;;;30.20;75.00;;;;;;5010521;28;19916;-73
2022/06/18 11:38:20;;;;;;;;;;;30.30;74.00;;;;;;5013391;28;19940;-73
2022/06/18 11:40:53;;;;;;;;;;;30.20;74.80;;;;;;5011320;28;20367;-73
2022/06/18 11:43:33;;;;;;;;;;;30.20;75.60;;;;;;5015088;28;20405;-74
2022/06/18 11:46:01;;;;;;;;;;;30.30;74.70;;;;;;5015759;28;19909;-72
2022/06/18 11:48:46;;;;;;;;;;;30.20;76.10;;;;;;5015049;28;19940;-72
2022/06/18 11:51:28;;;;;;;;;;;30.20;75.90;;;;;;4999729;28;20293;-72
2022/06/18 11:54:06;;;;;;;;;;;30.30;75.30;;;;;;5011301;28;20102;-72
2022/06/18 11:56:47;;;;;;;;;;;30.30;76.70;;;;;;5013897;28;19940;-72
2022/06/18 11:59:18;;;;;;;;;;;30.50;75.30;;;;;;5015584;28;19964;-72
2022/06/18 12:02:07;;;;;;;;;;;30.50;75.10;;;;;;5014567;28;19909;-72
2022/06/18 12:04:43;;;;;;;;;;;30.40;75.30;;;;;;4992974;28;20479;-73
2022/06/18 12:07:11;;;;;;;;;;;30.50;75.20;;;;;;4989539;28;19909;-72
2022/06/18 12:09:37;;;;;;;;;;;30.60;75.30;;;;;;4993383;28;20089;-73
2022/06/18 12:12:03;;;;;;;;;;;30.60;75.30;;;;;;4993916;28;20981;-72
2022/06/18 12:14:31;;;;;;;;;;;30.80;74.30;;;;;;4992784;28;20367;-72
2022/06/18 12:17:01;;;;;;;;;;;30.70;73.80;;;;;;4993052;28;19913;-72
2022/06/18 12:19:27;;;;;;;;;;;30.60;74.80;;;;;;4990804;28;19913;-74
2022/06/18 12:22:10;;;;;;;;;;;30.60;75.40;;;;;;4992768;28;19976;-72
2022/06/18 12:24:41;;;;;;;;;;;30.70;74.70;;;;;;4988496;28;19910;-73
2022/06/18 12:27:10;;;;;;;;;;;30.60;73.90;;;;;;4987726;28;20391;-73
2022/06/18 12:29:44;;;;;;;;;;;30.60;73.40;;;;;;4989536;28;19918;-72
2022/06/18 12:32:18;;;;;;;;;;;30.80;72.10;;;;;;4987847;28;20403;-72
2022/06/18 12:35:01;;;;;;;;;;;30.50;73.20;;;;;;4988508;28;19920;-72
2022/06/18 12:37:30;;;;;;;;;;;30.50;72.70;;;;;;4986074;28;20021;-73
2022/06/18 12:39:58;;;;;;;;;;;30.60;72.70;;;;;;4988317;28;19922;-73
2022/06/18 12:42:24;;;;;;;;;;;30.70;73.50;;;;;;5003922;28;19913;-72
2022/06/18 12:44:57;;;;;;;;;;;30.80;72.40;;;;;;5009812;28;20329;-73
2022/06/18 12:47:29;;;;;;;;;;;30.60;73.40;;;;;;5010111;28;19913;-72
2022/06/18 12:50:17;;;;;;;;;;;30.50;73.00;;;;;;5007255;28;19921;-73
2022/06/18 12:52:46;;;;;;;;;;;30.60;72.80;;;;;;5008041;28;19913;-72
2022/06/18 12:55:24;;;;;;;;;;;30.90;72.20;;;;;;5005897;28;19965;-74
2022/06/18 12:57:59;;;;;;;;;;;30.90;71.50;;;;;;5000293;28;19913;-72
2022/06/18 13:00:34;;;;;;;;;;;30.80;72.20;;;;;;5006936;28;19914;-73
2022/06/18 13:03:09;;;;;;;;;;;30.70;71.30;;;;;;5007925;28;20003;-73
2022/06/18 13:05:41;;;;;;;;;;;30.70;71.40;;;;;;5009940;28;20389;-75
2022/06/18 13:08:19;;;;;;;;;;;30.70;71.90;;;;;;5009232;28;20291;-75
2022/06/18 13:10:45;;;;;;;;;;;30.70;72.00;;;;;;5007138;28;20381;-74
2022/06/18 13:13:19;;;;;;;;;;;30.90;72.90;;;;;;5007516;28;19920;-76
2022/06/18 13:15:50;;;;;;;;;;;31.00;73.00;;;;;;5007236;28;19920;-74
2022/06/18 13:18:34;;;;;;;;;;;31.00;72.80;;;;;;4991828;28;19959;-74
2022/06/18 13:21:00;;;;;;;;;;;31.00;73.20;;;;;;5007947;28;19913;-74
2022/06/18 13:29:09;;;;;;;;;;;30.70;73.20;;;;;;5007579;28;19935;-74
2022/06/18 13:31:39;;;;;;;;;;;30.70;74.00;;;;;;5008902;28;19909;-74
2022/06/18 13:34:16;;;;;;;;;;;30.80;72.80;;;;;;5009362;28;19909;-74
2022/06/18 13:37:00;;;;;;;;;;;30.70;73.00;;;;;;5009005;28;19933;-74
2022/06/18 13:39:41;;;;;;;;;;;30.50;72.90;;;;;;4994680;28;19910;-74
2022/06/18 13:42:16;;;;;;;;;;;30.60;73.10;;;;;;5007300;28;19955;-74
2022/06/18 13:45:00;;;;;;;;;;;30.60;73.60;;;;;;5008126;28;20371;-74
2022/06/18 13:47:32;;;;;;;;;;;30.70;72.90;;;;;;5010449;28;19996;-74
2022/06/18 13:50:01;;;;;;;;;;;30.40;73.60;;;;;;5013268;28;19925;-74
2022/06/18 13:52:36;;;;;;;;;;;30.50;73.70;;;;;;5013153;28;20366;-74
2022/06/18 13:55:02;;;;;;;;;;;30.70;73.80;;;;;;5011627;28;19913;-75
2022/06/18 13:57:34;;;;;;;;;;;30.60;74.20;;;;;;5008841;28;19955;-75
2022/06/18 14:00:01;;;;;;;;;;;30.60;74.40;;;;;;5004944;28;19929;-76
2022/06/18 14:02:29;;;;;;;;;;;30.50;75.60;;;;;;5007518;28;20095;-75
2022/06/18 14:05:02;;;;;;;;;;;30.40;75.80;;;;;;5005878;28;20318;-75
2022/06/18 14:07:28;;;;;;;;;;;30.50;75.20;;;;;;5005670;28;19917;-74
2022/06/18 14:09:55;;;;;;;;;;;30.70;74.40;;;;;;5003799;28;19924;-75
2022/06/18 14:12:23;;;;;;;;;;;30.50;74.80;;;;;;5006578;28;19991;-74
2022/06/18 14:15:00;;;;;;;;;;;30.40;75.30;;;;;;5012634;28;19960;-75
2022/06/18 14:17:36;;;;;;;;;;;30.60;75.90;;;;;;5011204;28;19909;-75
2022/06/18 14:20:02;;;;;;;;;;;30.70;75.40;;;;;;5009385;28;19913;-75
2022/06/18 14:22:29;;;;;;;;;;;30.50;75.00;;;;;;5009218;28;20426;-75
2022/06/18 14:24:58;;;;;;;;;;;30.60;75.70;;;;;;5009169;28;19955;-75
2022/06/18 14:27:23;;;;;;;;;;;30.40;76.50;;;;;;5004352;28;20008;-75
2022/06/18 14:29:49;;;;;;;;;;;30.50;77.70;;;;;;5011991;28;20051;-75
2022/06/18 14:32:21;;;;;;;;;;;30.40;78.10;;;;;;5009726;28;19909;-79
2022/06/18 14:34:49;;;;;;;;;;;30.50;78.50;;;;;;5011009;28;20076;-75
2022/06/18 14:37:15;;;;;;;;;;;30.40;80.30;;;;;;5009612;28;19913;-74
2022/06/18 14:39:48;;;;;;;;;;;30.20;80.20;;;;;;5009722;28;20302;-75
2022/06/18 14:42:17;;;;;;;;;;;30.10;79.40;;;;;;5006123;28;19913;-75
2022/06/18 14:44:46;;;;;;;;;;;30.10;80.50;;;;;;5008440;28;20385;-75
2022/06/18 14:47:32;;;;;;;;;;;30.20;80.20;;;;;;5011254;28;19913;-73
2022/06/18 14:50:03;;;;;;;;;;;30.20;80.40;;;;;;4971265;28;19930;-71